ATL weather

Hartsfield Jackson Atlanta International Airport
Atlanta, Georgia, United States

Public forecast

Using degrees Fahrenheit for public forecast. Weather courtesy of forecast.io.

Current aviation weather report (METAR) for Hartsfield Jackson Atlanta International Airport

Retrieved 2020/01/19 09:02 UTC (39 minutes ago):

KATL 190902Z 32014KT 10SM FEW009 BKN015 OVC042 12/10 A3005 RMK AO2 CIG 013V018 T01220100

Aviation forecast (TAF) for Hartsfield Jackson Atlanta International Airport

Retrieved 2020/01/19 06:40 UTC (3 hours ago):

TAF KATL 190538Z 1906/2012 26004KT P6SM SCT028 SCT040 OVC050 FM190700 30008G18KT 2SM BR OVC015 FM191000 31012G21KT 6SM BR BKN012 FM191200 31013G21KT P6SM BKN100 FM191800 31014G22KT P6SM FEW250 FM201100 33011KT P6SM SKC